Pagrindinis puslapis
METAR-TAF:

METAR-TAF

Oro uostai :

Araxá, Minas Žeraisas, Brazilija

platuma: 19-33-38S, ilguma: 046-57-56W, Aukštis: 999 m

Dabartinis oras

Ataskaita buvo paskelbta 1 valandą ir 58 minutes, ne 22:00 UTC
Vėjas 3 kt iš Pietų/Pietvakarių, svyruoja nuo Pietų ir Vakarų/Pietvakarių
Temperatūra 25°C
Drėgmė 65%
Slėgis 1017 hPa
Matomumas 10 km arba daugiau
nėra debesų žemiau 1500 m ir nėra kamuolinių lietaus debesų

METAR: SBAX 052200Z AUTO 21003KT 180V250 CAVOK 25/18 Q1017

Laikas: 20:58 (23:58 UTC)


TAF: trūkstamas

Orai ataskaitas ir orų prognozės (METAR, TAF).

turimą stotys yra geltonos ir raudonos taškus žemėlapyje.

Perkelti pele per norėdami pamatyti stoties vardą.

Tada spustelėkite, norėdami matyti oro stebėjimo ir prognozės.

Norėdami pakeisti žemėlapį: spustelėkite ant žalios mygtukų su juodo kryžiaus žemyn,; žalią mygtuką su brūkšneliu, jei norite nutolinti; arba žalių rodyklių gretimoms žemėlapius.


METAR-TAF: